sensor_id;sensor_type;location;lat;lon;timestamp;pressure;altitude;pressure_sealevel;temperature;humidity
79463;BME280;68931;47.286;18.756;2023-06-22T00:00:24;100893.63;;;21.12;92.60
79463;BME280;68931;47.286;18.756;2023-06-22T00:00:57;100908.50;;;21.14;92.23
79463;BME280;68931;47.286;18.756;2023-06-22T00:01:35;100905.31;;;21.11;92.07
79463;BME280;68931;47.286;18.756;2023-06-22T00:02:07;100908.66;;;21.13;91.75
79463;BME280;68931;47.286;18.756;2023-06-22T00:02:39;100912.31;;;21.12;91.85
79463;BME280;68931;47.286;18.756;2023-06-22T00:03:11;100912.31;;;21.12;91.77
79463;BME280;68931;47.286;18.756;2023-06-22T00:03:43;100905.59;;;21.08;91.92
79463;BME280;68931;47.286;18.756;2023-06-22T00:04:15;100905.72;;;21.06;92.42
79463;BME280;68931;47.286;18.756;2023-06-22T00:04:47;100915.28;;;21.09;92.64
79463;BME280;68931;47.286;18.756;2023-06-22T00:05:19;100911.63;;;21.10;92.48
79463;BME280;68931;47.286;18.756;2023-06-22T00:05:52;100896.38;;;20.92;91.73
79463;BME280;68931;47.286;18.756;2023-06-22T00:06:24;100895.38;;;20.93;91.60
79463;BME280;68931;47.286;18.756;2023-06-22T00:06:56;100923.84;;;21.02;91.79
79463;BME280;68931;47.286;18.756;2023-06-22T00:07:28;100911.09;;;20.96;92.37
79463;BME280;68931;47.286;18.756;2023-06-22T00:08:03;100931.03;;;21.02;91.79
79463;BME280;68931;47.286;18.756;2023-06-22T00:08:36;100922.47;;;20.98;91.56
79463;BME280;68931;47.286;18.756;2023-06-22T00:09:08;100912.78;;;20.97;91.77
79463;BME280;68931;47.286;18.756;2023-06-22T00:09:42;100916.84;;;21.01;92.00
79463;BME280;68931;47.286;18.756;2023-06-22T00:10:14;100890.78;;;20.76;91.80
79463;BME280;68931;47.286;18.756;2023-06-22T00:10:46;100929.91;;;20.95;91.46
79463;BME280;68931;47.286;18.756;2023-06-22T00:11:21;100907.06;;;20.83;91.99
79463;BME280;68931;47.286;18.756;2023-06-22T00:11:53;100908.91;;;20.82;91.97
79463;BME280;68931;47.286;18.756;2023-06-22T00:12:28;100910.28;;;20.86;91.99
79463;BME280;68931;47.286;18.756;2023-06-22T00:13:00;100904.41;;;20.83;92.02
79463;BME280;68931;47.286;18.756;2023-06-22T00:13:32;100913.78;;;20.87;92.63
79463;BME280;68931;47.286;18.756;2023-06-22T00:14:04;100907.75;;;20.85;92.70
79463;BME280;68931;47.286;18.756;2023-06-22T00:14:36;100913.66;;;20.88;92.53
79463;BME280;68931;47.286;18.756;2023-06-22T00:15:09;100906.50;;;20.89;92.00
79463;BME280;68931;47.286;18.756;2023-06-22T00:15:41;100907.19;;;20.91;92.69
79463;BME280;68931;47.286;18.756;2023-06-22T00:16:16;100901.44;;;20.86;92.32
79463;BME280;68931;47.286;18.756;2023-06-22T00:16:48;100893.03;;;20.81;92.26
79463;BME280;68931;47.286;18.756;2023-06-22T00:17:20;100864.31;;;20.65;92.54
79463;BME280;68931;47.286;18.756;2023-06-22T00:17:52;100892.19;;;20.80;92.67
79463;BME280;68931;47.286;18.756;2023-06-22T00:18:24;100887.84;;;20.79;92.65
79463;BME280;68931;47.286;18.756;2023-06-22T00:19:00;100888.53;;;20.81;92.26
79463;BME280;68931;47.286;18.756;2023-06-22T00:19:34;100879.41;;;20.84;92.63
79463;BME280;68931;47.286;18.756;2023-06-22T00:20:07;100888.09;;;20.86;93.12
79463;BME280;68931;47.286;18.756;2023-06-22T00:20:41;100878.47;;;20.75;93.02
79463;BME280;68931;47.286;18.756;2023-06-22T00:21:13;100889.53;;;20.80;93.31
79463;BME280;68931;47.286;18.756;2023-06-22T00:21:45;100887.00;;;20.79;93.12
79463;BME280;68931;47.286;18.756;2023-06-22T00:22:19;100868.91;;;20.73;92.74
79463;BME280;68931;47.286;18.756;2023-06-22T00:23:00;100852.38;;;20.59;92.86
79463;BME280;68931;47.286;18.756;2023-06-22T00:23:32;100887.13;;;20.77;92.82
79463;BME280;68931;47.286;18.756;2023-06-22T00:24:06;100871.44;;;20.74;93.03
79463;BME280;68931;47.286;18.756;2023-06-22T00:24:38;100888.69;;;20.70;93.21
79463;BME280;68931;47.286;18.756;2023-06-22T00:25:11;100883.94;;;20.74;93.57
79463;BME280;68931;47.286;18.756;2023-06-22T00:25:43;100886.59;;;20.74;93.61
79463;BME280;68931;47.286;18.756;2023-06-22T00:26:15;100879.31;;;20.66;93.38
79463;BME280;68931;47.286;18.756;2023-06-22T00:26:49;100874.00;;;20.66;93.36
79463;BME280;68931;47.286;18.756;2023-06-22T00:27:24;100866.97;;;20.65;92.84
79463;BME280;68931;47.286;18.756;2023-06-22T00:27:56;100886.47;;;20.75;92.75
79463;BME280;68931;47.286;18.756;2023-06-22T00:28:28;100886.59;;;20.74;92.88
79463;BME280;68931;47.286;18.756;2023-06-22T00:29:03;100885.75;;;20.73;93.33
79463;BME280;68931;47.286;18.756;2023-06-22T00:29:35;100881.41;;;20.72;93.24
79463;BME280;68931;47.286;18.756;2023-06-22T00:30:07;100886.47;;;20.75;93.58
79463;BME280;68931;47.286;18.756;2023-06-22T00:30:39;100875.63;;;20.67;93.24
79463;BME280;68931;47.286;18.756;2023-06-22T00:31:11;100882.38;;;20.71;93.66
79463;BME280;68931;47.286;18.756;2023-06-22T00:31:43;100876.47;;;20.67;93.63
79463;BME280;68931;47.286;18.756;2023-06-22T00:32:18;100885.91;;;20.72;93.19
79463;BME280;68931;47.286;18.756;2023-06-22T00:32:50;100885.44;;;20.76;93.43
79463;BME280;68931;47.286;18.756;2023-06-22T00:33:24;100892.19;;;20.80;93.29
79463;BME280;68931;47.286;18.756;2023-06-22T00:33:56;100888.53;;;20.81;93.36
79463;BME280;68931;47.286;18.756;2023-06-22T00:34:28;100878.47;;;20.75;93.33
79463;BME280;68931;47.286;18.756;2023-06-22T00:35:00;100888.25;;;20.84;93.97
79463;BME280;68931;47.286;18.756;2023-06-22T00:35:32;100880.25;;;20.84;94.06
79463;BME280;68931;47.286;18.756;2023-06-22T00:36:05;100880.53;;;20.81;94.09
79463;BME280;68931;47.286;18.756;2023-06-22T00:36:39;100882.75;;;20.86;94.21
79463;BME280;68931;47.286;18.756;2023-06-22T00:37:13;100883.59;;;20.86;93.67
79463;BME280;68931;47.286;18.756;2023-06-22T00:37:45;100875.22;;;20.81;93.62
79463;BME280;68931;47.286;18.756;2023-06-22T00:38:17;100882.38;;;20.81;93.80
79463;BME280;68931;47.286;18.756;2023-06-22T00:38:49;100887.84;;;20.79;93.30
79463;BME280;68931;47.286;18.756;2023-06-22T00:39:22;100886.28;;;20.77;93.29
79463;BME280;68931;47.286;18.756;2023-06-22T00:39:54;100894.72;;;20.82;93.56
79463;BME280;68931;47.286;18.756;2023-06-22T00:40:31;100897.38;;;20.82;93.16
79463;BME280;68931;47.286;18.756;2023-06-22T00:41:03;100892.91;;;20.82;93.88
79463;BME280;68931;47.286;18.756;2023-06-22T00:41:35;100886.16;;;20.78;94.04
79463;BME280;68931;47.286;18.756;2023-06-22T00:42:07;100883.06;;;20.83;93.34
79463;BME280;68931;47.286;18.756;2023-06-22T00:42:39;100893.16;;;20.79;93.68
79463;BME280;68931;47.286;18.756;2023-06-22T00:43:11;100893.16;;;20.79;93.50
79463;BME280;68931;47.286;18.756;2023-06-22T00:43:45;100868.94;;;20.63;93.22
79463;BME280;68931;47.286;18.756;2023-06-22T00:44:17;100889.81;;;20.77;93.29
79463;BME280;68931;47.286;18.756;2023-06-22T00:44:49;100876.78;;;20.74;92.90
79463;BME280;68931;47.286;18.756;2023-06-22T00:45:23;100893.16;;;20.79;92.92
79463;BME280;68931;47.286;18.756;2023-06-22T00:45:56;100889.81;;;20.77;93.16
79463;BME280;68931;47.286;18.756;2023-06-22T00:46:28;100880.56;;;20.72;93.17
79463;BME280;68931;47.286;18.756;2023-06-22T00:47:01;100882.53;;;20.70;93.47
79463;BME280;68931;47.286;18.756;2023-06-22T00:47:34;100886.88;;;20.71;93.24
79463;BME280;68931;47.286;18.756;2023-06-22T00:48:08;100892.91;;;20.73;93.33
79463;BME280;68931;47.286;18.756;2023-06-22T00:48:43;100889.53;;;20.71;93.07
79463;BME280;68931;47.286;18.756;2023-06-22T00:49:15;100894.75;;;20.72;93.67
79463;BME280;68931;47.286;18.756;2023-06-22T00:49:49;100896.97;;;20.67;93.54
79463;BME280;68931;47.286;18.756;2023-06-22T00:50:25;100890.38;;;20.71;93.10
79463;BME280;68931;47.286;18.756;2023-06-22T00:50:57;100889.16;;;20.65;93.15
79463;BME280;68931;47.286;18.756;2023-06-22T00:51:29;100880.84;;;20.59;93.75
79463;BME280;68931;47.286;18.756;2023-06-22T00:52:02;100886.63;;;20.64;93.88
79463;BME280;68931;47.286;18.756;2023-06-22T00:52:35;100881.44;;;20.53;93.69
79463;BME280;68931;47.286;18.756;2023-06-22T00:53:08;100903.31;;;20.66;93.80
79463;BME280;68931;47.286;18.756;2023-06-22T00:53:41;100900.66;;;20.66;94.16
79463;BME280;68931;47.286;18.756;2023-06-22T00:54:15;100899.09;;;20.63;93.80
79463;BME280;68931;47.286;18.756;2023-06-22T00:54:48;100887.34;;;20.56;93.86
79463;BME280;68931;47.286;18.756;2023-06-22T00:55:21;100876.09;;;20.53;93.51
79463;BME280;68931;47.286;18.756;2023-06-22T00:55:54;100897.28;;;20.64;93.95
79463;BME280;68931;47.286;18.756;2023-06-22T00:56:27;100898.84;;;20.67;93.92
79463;BME280;68931;47.286;18.756;2023-06-22T00:57:04;100893.31;;;20.68;94.16
79463;BME280;68931;47.286;18.756;2023-06-22T00:57:36;100884.34;;;20.69;93.54
79463;BME280;68931;47.286;18.756;2023-06-22T00:58:09;100888.00;;;20.68;94.25
79463;BME280;68931;47.286;18.756;2023-06-22T00:58:45;100885.31;;;20.68;93.78
79463;BME280;68931;47.286;18.756;2023-06-22T00:59:17;100880.56;;;20.62;93.92
79463;BME280;68931;47.286;18.756;2023-06-22T00:59:49;100874.41;;;20.61;93.73
79463;BME280;68931;47.286;18.756;2023-06-22T01:00:24;100884.78;;;20.64;93.66
79463;BME280;68931;47.286;18.756;2023-06-22T01:00:56;100872.31;;;20.55;93.34
79463;BME280;68931;47.286;18.756;2023-06-22T01:01:28;100877.78;;;20.54;93.70
79463;BME280;68931;47.286;18.756;2023-06-22T01:02:00;100882.41;;;20.61;93.20
79463;BME280;68931;47.286;18.756;2023-06-22T01:02:32;100878.03;;;20.60;93.88
79463;BME280;68931;47.286;18.756;2023-06-22T01:03:06;100879.47;;;20.64;93.78
79463;BME280;68931;47.286;18.756;2023-06-22T01:03:40;100878.63;;;20.64;93.90
79463;BME280;68931;47.286;18.756;2023-06-22T01:04:12;100884.66;;;20.66;94.03
79463;BME280;68931;47.286;18.756;2023-06-22T01:04:44;100880.97;;;20.67;93.57
79463;BME280;68931;47.286;18.756;2023-06-22T01:05:18;100884.47;;;20.67;93.60
79463;BME280;68931;47.286;18.756;2023-06-22T01:05:53;100872.00;;;20.68;94.00
79463;BME280;68931;47.286;18.756;2023-06-22T01:06:37;100885.19;;;20.70;93.83
79463;BME280;68931;47.286;18.756;2023-06-22T01:07:38;100878.03;;;20.70;93.80
79463;BME280;68931;47.286;18.756;2023-06-22T01:08:35;100882.38;;;20.71;93.84
79463;BME280;68931;47.286;18.756;2023-06-22T01:09:15;100869.63;;;20.65;94.16
79463;BME280;68931;47.286;18.756;2023-06-22T01:10:09;100874.25;;;20.73;94.26
79463;BME280;68931;47.286;18.756;2023-06-22T01:11:10;100873.53;;;20.71;94.13
79463;BME280;68931;47.286;18.756;2023-06-22T01:11:54;100874.00;;;20.66;93.64
79463;BME280;68931;47.286;18.756;2023-06-22T01:12:34;100870.75;;;20.62;93.49
79463;BME280;68931;47.286;18.756;2023-06-22T01:13:45;100875.63;;;20.67;93.53
79463;BME280;68931;47.286;18.756;2023-06-22T01:14:29;100864.56;;;20.62;92.99
79463;BME280;68931;47.286;18.756;2023-06-22T01:15:35;100874.97;;;20.65;93.35
79463;BME280;68931;47.286;18.756;2023-06-22T01:16:14;100855.88;;;20.60;93.19
79463;BME280;68931;47.286;18.756;2023-06-22T01:16:49;100852.22;;;20.61;93.36
79463;BME280;68931;47.286;18.756;2023-06-22T01:17:24;100859.09;;;20.63;92.93
79463;BME280;68931;47.286;18.756;2023-06-22T01:17:59;100854.63;;;20.64;92.95
79463;BME280;68931;47.286;18.756;2023-06-22T01:18:35;100825.59;;;20.51;93.27
79463;BME280;68931;47.286;18.756;2023-06-22T01:19:50;100834.44;;;20.52;92.82
79463;BME280;68931;47.286;18.756;2023-06-22T01:20:25;100838.91;;;20.51;93.16
79463;BME280;68931;47.286;18.756;2023-06-22T01:21:00;100841.72;;;20.50;93.27
79463;BME280;68931;47.286;18.756;2023-06-22T01:21:37;100855.88;;;20.50;93.53
79463;BME280;68931;47.286;18.756;2023-06-22T01:22:11;100857.56;;;20.51;92.53
79463;BME280;68931;47.286;18.756;2023-06-22T01:25:03;100864.72;;;20.51;93.08
79463;BME280;68931;47.286;18.756;2023-06-22T01:26:05;100863.75;;;20.52;93.44
79463;BME280;68931;47.286;18.756;2023-06-22T01:27:05;100861.78;;;20.54;93.60
79463;BME280;68931;47.286;18.756;2023-06-22T01:29:01;100863.47;;;20.55;93.99
79463;BME280;68931;47.286;18.756;2023-06-22T01:29:04;100858.41;;;20.52;93.59
79463;BME280;68931;47.286;18.756;2023-06-22T01:29:38;100847.63;;;20.53;93.84
79463;BME280;68931;47.286;18.756;2023-06-22T01:30:14;100860.53;;;20.58;93.64
79463;BME280;68931;47.286;18.756;2023-06-22T01:30:49;100857.88;;;20.58;93.99
79463;BME280;68931;47.286;18.756;2023-06-22T01:31:37;100846.50;;;20.56;93.48
79463;BME280;68931;47.286;18.756;2023-06-22T01:32:11;100854.19;;;20.59;93.77
79463;BME280;68931;47.286;18.756;2023-06-22T01:32:44;100846.63;;;20.54;93.10
79463;BME280;68931;47.286;18.756;2023-06-22T01:33:17;100849.31;;;20.54;92.99
79463;BME280;68931;47.286;18.756;2023-06-22T01:33:53;100836.25;;;20.42;93.23
79463;BME280;68931;47.286;18.756;2023-06-22T01:34:27;100851.72;;;20.48;93.05
79463;BME280;68931;47.286;18.756;2023-06-22T01:35:01;100849.47;;;20.43;93.29
79463;BME280;68931;47.286;18.756;2023-06-22T01:35:35;100846.09;;;20.41;93.22
79463;BME280;68931;47.286;18.756;2023-06-22T01:36:09;100841.19;;;20.37;92.88
79463;BME280;68931;47.286;18.756;2023-06-22T01:36:42;100848.91;;;20.40;93.06
79463;BME280;68931;47.286;18.756;2023-06-22T01:37:15;100853.53;;;20.38;93.20
79463;BME280;68931;47.286;18.756;2023-06-22T01:37:48;100850.31;;;20.34;93.21
79463;BME280;68931;47.286;18.756;2023-06-22T01:38:21;100859.16;;;20.35;93.32
79463;BME280;68931;47.286;18.756;2023-06-22T01:38:55;100831.09;;;20.21;93.26
79463;BME280;68931;47.286;18.756;2023-06-22T01:39:29;100852.56;;;20.39;93.51
79463;BME280;68931;47.286;18.756;2023-06-22T01:40:04;100850.88;;;20.38;93.08
79463;BME280;68931;47.286;18.756;2023-06-22T01:40:37;100856.75;;;20.41;93.37
79463;BME280;68931;47.286;18.756;2023-06-22T01:41:10;100842.19;;;20.36;93.89
79463;BME280;68931;47.286;18.756;2023-06-22T01:41:43;100830.78;;;20.34;93.40
79463;BME280;68931;47.286;18.756;2023-06-22T01:42:17;100840.34;;;20.36;93.63
79463;BME280;68931;47.286;18.756;2023-06-22T01:42:50;100845.69;;;20.36;93.75
79463;BME280;68931;47.286;18.756;2023-06-22T01:43:24;100849.06;;;20.38;93.79
79463;BME280;68931;47.286;18.756;2023-06-22T01:43:57;100851.84;;;20.37;93.55
79463;BME280;68931;47.286;18.756;2023-06-22T01:44:30;100845.81;;;20.35;93.53
79463;BME280;68931;47.286;18.756;2023-06-22T01:45:03;100848.75;;;20.32;93.19
79463;BME280;68931;47.286;18.756;2023-06-22T01:45:35;100847.34;;;20.27;92.95
79463;BME280;68931;47.286;18.756;2023-06-22T01:46:08;100839.22;;;20.19;93.05
79463;BME280;68931;47.286;18.756;2023-06-22T01:46:40;100834.59;;;20.21;93.26
79463;BME280;68931;47.286;18.756;2023-06-22T01:47:13;100813.84;;;20.06;93.33
79463;BME280;68931;47.286;18.756;2023-06-22T01:47:46;100848.59;;;20.23;93.11
79463;BME280;68931;47.286;18.756;2023-06-22T01:48:19;100847.22;;;20.19;92.97
79463;BME280;68931;47.286;18.756;2023-06-22T01:48:53;100835.72;;;20.09;93.38
79463;BME280;68931;47.286;18.756;2023-06-22T01:49:25;100849.19;;;20.17;93.60
79463;BME280;68931;47.286;18.756;2023-06-22T01:49:57;100847.50;;;20.16;93.26
79463;BME280;68931;47.286;18.756;2023-06-22T01:50:32;100849.44;;;20.14;93.53
79463;BME280;68931;47.286;18.756;2023-06-22T01:51:05;100852.28;;;20.13;93.39
79463;BME280;68931;47.286;18.756;2023-06-22T01:51:37;100856.47;;;20.15;93.69
79463;BME280;68931;47.286;18.756;2023-06-22T01:52:15;100849.44;;;20.14;93.76
79463;BME280;68931;47.286;18.756;2023-06-22T01:52:47;100839.38;;;20.08;93.82
79463;BME280;68931;47.286;18.756;2023-06-22T01:53:23;100852.09;;;20.14;93.88
79463;BME280;68931;47.286;18.756;2023-06-22T01:53:58;100841.75;;;20.11;93.54
79463;BME280;68931;47.286;18.756;2023-06-22T01:54:30;100852.69;;;20.18;94.16
79463;BME280;68931;47.286;18.756;2023-06-22T01:55:02;100856.91;;;20.20;93.57
79463;BME280;68931;47.286;18.756;2023-06-22T01:55:34;100846.38;;;20.19;94.20
79463;BME280;68931;47.286;18.756;2023-06-22T01:56:09;100847.50;;;20.16;94.10
79463;BME280;68931;47.286;18.756;2023-06-22T01:56:41;100850.41;;;20.23;93.84
79463;BME280;68931;47.286;18.756;2023-06-22T01:57:13;100851.13;;;20.25;94.28
79463;BME280;68931;47.286;18.756;2023-06-22T01:57:45;100838.50;;;20.17;94.30
79463;BME280;68931;47.286;18.756;2023-06-22T01:58:20;100848.91;;;20.20;94.03
79463;BME280;68931;47.286;18.756;2023-06-22T01:59:17;100816.66;;;20.04;94.43
79463;BME280;68931;47.286;18.756;2023-06-22T02:00:04;100861.06;;;20.23;93.79
79463;BME280;68931;47.286;18.756;2023-06-22T02:00:44;100852.69;;;20.18;93.74
79463;BME280;68931;47.286;18.756;2023-06-22T02:01:25;100851.44;;;20.12;93.39
79463;BME280;68931;47.286;18.756;2023-06-22T02:02:07;100860.41;;;20.11;93.84
79463;BME280;68931;47.286;18.756;2023-06-22T02:02:54;100870.63;;;20.16;93.38
79463;BME280;68931;47.286;18.756;2023-06-22T02:03:35;100855.22;;;20.10;93.40
79463;BME280;68931;47.286;18.756;2023-06-22T02:04:13;100867.81;;;20.17;93.39
79463;BME280;68931;47.286;18.756;2023-06-22T02:05:06;100863.59;;;20.15;93.45
79463;BME280;68931;47.286;18.756;2023-06-22T02:05:46;100858.44;;;20.13;93.87
79463;BME280;68931;47.286;18.756;2023-06-22T02:06:24;100852.28;;;20.13;93.44
79463;BME280;68931;47.286;18.756;2023-06-22T02:07:00;100866.84;;;20.18;93.61
79463;BME280;68931;47.286;18.756;2023-06-22T02:07:46;100852.28;;;20.13;93.69
79463;BME280;68931;47.286;18.756;2023-06-22T02:08:25;100862.50;;;20.17;93.70
79463;BME280;68931;47.286;18.756;2023-06-22T02:09:02;100867.13;;;20.15;93.39
79463;BME280;68931;47.286;18.756;2023-06-22T02:09:41;100857.16;;;20.08;92.85
79463;BME280;68931;47.286;18.756;2023-06-22T02:10:19;100873.44;;;20.14;93.44
79463;BME280;68931;47.286;18.756;2023-06-22T02:10:55;100865.72;;;20.11;93.10
79463;BME280;68931;47.286;18.756;2023-06-22T02:11:29;100856.47;;;20.06;93.00
79463;BME280;68931;47.286;18.756;2023-06-22T02:12:04;100872.75;;;20.12;92.79
79463;BME280;68931;47.286;18.756;2023-06-22T02:12:38;100869.50;;;20.09;93.13
79463;BME280;68931;47.286;18.756;2023-06-22T02:13:13;100860.53;;;20.00;93.42
79463;BME280;68931;47.286;18.756;2023-06-22T02:13:46;100874.00;;;20.08;93.44
79463;BME280;68931;47.286;18.756;2023-06-22T02:14:18;100871.06;;;20.11;93.50
79463;BME280;68931;47.286;18.756;2023-06-22T02:14:52;100871.06;;;20.11;93.93
79463;BME280;68931;47.286;18.756;2023-06-22T02:15:25;100863.47;;;20.07;93.44
79463;BME280;68931;47.286;18.756;2023-06-22T02:16:03;100859.00;;;20.07;93.67
79463;BME280;68931;47.286;18.756;2023-06-22T02:16:36;100867.13;;;20.06;92.89
79463;BME280;68931;47.286;18.756;2023-06-22T02:17:12;100862.63;;;20.06;93.75
79463;BME280;68931;47.286;18.756;2023-06-22T02:17:48;100873.28;;;20.06;93.43
79463;BME280;68931;47.286;18.756;2023-06-22T02:18:20;100877.50;;;20.09;93.06
79463;BME280;68931;47.286;18.756;2023-06-22T02:18:52;100875.69;;;20.09;93.58
79463;BME280;68931;47.286;18.756;2023-06-22T02:19:24;100876.66;;;20.08;93.44
79463;BME280;68931;47.286;18.756;2023-06-22T02:19:57;100880.28;;;20.07;93.04
79463;BME280;68931;47.286;18.756;2023-06-22T02:20:29;100868.53;;;20.00;92.94
79463;BME280;68931;47.286;18.756;2023-06-22T02:21:01;100868.53;;;20.00;92.87
79463;BME280;68931;47.286;18.756;2023-06-22T02:21:33;100879.03;;;20.02;93.34
79463;BME280;68931;47.286;18.756;2023-06-22T02:22:05;100839.66;;;19.76;93.02
79463;BME280;68931;47.286;18.756;2023-06-22T02:22:37;100866.69;;;19.91;93.24
79463;BME280;68931;47.286;18.756;2023-06-22T02:23:09;100858.28;;;19.86;93.29
79463;BME280;68931;47.286;18.756;2023-06-22T02:23:41;100859.81;;;19.88;93.49
79463;BME280;68931;47.286;18.756;2023-06-22T02:24:13;100877.50;;;19.99;93.76
79463;BME280;68931;47.286;18.756;2023-06-22T02:24:48;100880.47;;;19.96;93.96
79463;BME280;68931;47.286;18.756;2023-06-22T02:25:20;100882.13;;;19.97;93.85
79463;BME280;68931;47.286;18.756;2023-06-22T02:25:52;100879.44;;;19.97;93.92
79463;BME280;68931;47.286;18.756;2023-06-22T02:26:27;100872.88;;;19.91;93.94
79463;BME280;68931;47.286;18.756;2023-06-22T02:27:01;100884.09;;;19.95;94.01
79463;BME280;68931;47.286;18.756;2023-06-22T02:27:57;100872.28;;;19.88;93.62
79463;BME280;68931;47.286;18.756;2023-06-22T02:28:29;100891.38;;;19.93;94.32
79463;BME280;68931;47.286;18.756;2023-06-22T02:29:01;100888.72;;;19.93;93.89
79463;BME280;68931;47.286;18.756;2023-06-22T02:29:33;100892.94;;;19.96;93.47
79463;BME280;68931;47.286;18.756;2023-06-22T02:30:06;100890.94;;;19.98;94.25
79463;BME280;68931;47.286;18.756;2023-06-22T02:30:38;100881.44;;;19.95;94.48
79463;BME280;68931;47.286;18.756;2023-06-22T02:31:13;100890.09;;;19.97;94.03
79463;BME280;68931;47.286;18.756;2023-06-22T02:31:48;100878.31;;;19.90;93.94
79463;BME280;68931;47.286;18.756;2023-06-22T02:32:20;100893.78;;;19.96;94.04
79463;BME280;68931;47.286;18.756;2023-06-22T02:32:52;100878.63;;;19.87;93.60
79463;BME280;68931;47.286;18.756;2023-06-22T02:33:30;100888.00;;;19.91;94.09
79463;BME280;68931;47.286;18.756;2023-06-22T02:34:02;100888.97;;;19.90;93.93
79463;BME280;68931;47.286;18.756;2023-06-22T02:34:34;100892.34;;;19.92;94.07
79463;BME280;68931;47.286;18.756;2023-06-22T02:35:09;100878.19;;;19.82;94.11
79463;BME280;68931;47.286;18.756;2023-06-22T02:35:41;100882.53;;;19.83;93.83
79463;BME280;68931;47.286;18.756;2023-06-22T02:36:17;100892.91;;;19.86;94.01
79463;BME280;68931;47.286;18.756;2023-06-22T02:36:52;100896.25;;;19.88;94.19
79463;BME280;68931;47.286;18.756;2023-06-22T02:37:24;100896.44;;;19.86;93.70
79463;BME280;68931;47.286;18.756;2023-06-22T02:38:01;100891.94;;;19.87;94.13
79463;BME280;68931;47.286;18.756;2023-06-22T02:38:35;100894.59;;;19.87;93.75
79463;BME280;68931;47.286;18.756;2023-06-22T02:39:08;100884.47;;;19.81;93.87
79463;BME280;68931;47.286;18.756;2023-06-22T02:39:40;100858.25;;;19.67;93.66
79463;BME280;68931;47.286;18.756;2023-06-22T02:40:12;100888.56;;;19.85;93.70
79463;BME280;68931;47.286;18.756;2023-06-22T02:40:44;100888.44;;;19.86;93.96
79463;BME280;68931;47.286;18.756;2023-06-22T02:41:16;100886.47;;;19.79;93.69
79463;BME280;68931;47.286;18.756;2023-06-22T02:41:53;100879.59;;;19.76;93.99
79463;BME280;68931;47.286;18.756;2023-06-22T02:42:25;100895.25;;;19.79;93.31
79463;BME280;68931;47.286;18.756;2023-06-22T02:42:58;100892.75;;;19.78;93.48
79463;BME280;68931;47.286;18.756;2023-06-22T02:43:33;100904.09;;;19.80;93.21
79463;BME280;68931;47.286;18.756;2023-06-22T02:44:05;100898.63;;;19.81;93.12
79463;BME280;68931;47.286;18.756;2023-06-22T02:44:37;100904.94;;;19.80;93.62
79463;BME280;68931;47.286;18.756;2023-06-22T02:45:09;100894.00;;;19.74;93.26
79463;BME280;68931;47.286;18.756;2023-06-22T02:45:42;100882.94;;;19.69;93.37
79463;BME280;68931;47.286;18.756;2023-06-22T02:46:17;100908.56;;;19.79;93.30
79463;BME280;68931;47.286;18.756;2023-06-22T02:46:49;100892.44;;;19.71;93.30
79463;BME280;68931;47.286;18.756;2023-06-22T02:47:21;100894.84;;;19.74;93.78
79463;BME280;68931;47.286;18.756;2023-06-22T02:47:53;100904.09;;;19.80;93.18
79463;BME280;68931;47.286;18.756;2023-06-22T02:48:25;100905.78;;;19.81;93.34
79463;BME280;68931;47.286;18.756;2023-06-22T02:48:57;100908.31;;;19.82;93.40
79463;BME280;68931;47.286;18.756;2023-06-22T02:49:29;100892.75;;;19.78;93.95
79463;BME280;68931;47.286;18.756;2023-06-22T02:50:04;100898.78;;;19.80;93.92
79463;BME280;68931;47.286;18.756;2023-06-22T02:50:36;100910.97;;;19.82;93.51
79463;BME280;68931;47.286;18.756;2023-06-22T02:51:08;100893.88;;;19.75;93.51
79463;BME280;68931;47.286;18.756;2023-06-22T02:51:49;100907.47;;;19.82;93.60
79463;BME280;68931;47.286;18.756;2023-06-22T02:52:21;100900.59;;;19.79;93.90
79463;BME280;68931;47.286;18.756;2023-06-22T02:52:53;100902.16;;;19.82;93.57
79463;BME280;68931;47.286;18.756;2023-06-22T02:53:27;100907.47;;;19.82;93.79
79463;BME280;68931;47.286;18.756;2023-06-22T02:53:59;100910.13;;;19.82;94.02
79463;BME280;68931;47.286;18.756;2023-06-22T02:54:36;100911.94;;;19.81;93.43
79463;BME280;68931;47.286;18.756;2023-06-22T02:55:08;100912.94;;;19.80;93.09
79463;BME280;68931;47.286;18.756;2023-06-22T02:55:40;100906.91;;;19.78;93.22
79463;BME280;68931;47.286;18.756;2023-06-22T02:56:15;100909.59;;;19.78;93.40
79463;BME280;68931;47.286;18.756;2023-06-22T02:56:47;100900.88;;;19.76;93.41
79463;BME280;68931;47.286;18.756;2023-06-22T02:57:19;100896.94;;;19.71;92.98
79463;BME280;68931;47.286;18.756;2023-06-22T02:57:51;100903.53;;;19.76;93.38
79463;BME280;68931;47.286;18.756;2023-06-22T02:58:24;100902.44;;;19.79;92.99
79463;BME280;68931;47.286;18.756;2023-06-22T02:58:56;100900.88;;;19.76;92.88
79463;BME280;68931;47.286;18.756;2023-06-22T02:59:32;100898.09;;;19.78;93.20
79463;BME280;68931;47.286;18.756;2023-06-22T03:00:05;100907.91;;;19.77;93.10
79463;BME280;68931;47.286;18.756;2023-06-22T03:00:49;100899.91;;;19.77;93.55
79463;BME280;68931;47.286;18.756;2023-06-22T03:01:24;100901.72;;;19.77;93.58
79463;BME280;68931;47.286;18.756;2023-06-22T03:01:56;100902.72;;;19.76;93.35
79463;BME280;68931;47.286;18.756;2023-06-22T03:02:28;100898.47;;;19.73;93.08
79463;BME280;68931;47.286;18.756;2023-06-22T03:03:00;100902.72;;;19.76;93.48
79463;BME280;68931;47.286;18.756;2023-06-22T03:03:32;100885.72;;;19.67;93.32